sensor_id;sensor_type;location;lat;lon;timestamp;pressure;altitude;pressure_sealevel;temperature;humidity
58239;BME280;44037;55.638;37.356;2024-02-15T00:00:03;100251.50;;;-11.98;76.76
58239;BME280;44037;55.638;37.356;2024-02-15T00:02:33;100252.47;;;-12.04;76.73
58239;BME280;44037;55.638;37.356;2024-02-15T00:05:01;100250.56;;;-11.93;77.25
58239;BME280;44037;55.638;37.356;2024-02-15T00:07:30;100243.63;;;-11.92;76.87
58239;BME280;44037;55.638;37.356;2024-02-15T00:09:58;100249.22;;;-12.18;77.22
58239;BME280;44037;55.638;37.356;2024-02-15T00:12:26;100249.81;;;-12.01;77.14
58239;BME280;44037;55.638;37.356;2024-02-15T00:14:55;100241.31;;;-12.09;76.82
58239;BME280;44037;55.638;37.356;2024-02-15T00:17:24;100249.97;;;-12.12;76.99
58239;BME280;44037;55.638;37.356;2024-02-15T00:19:51;100251.53;;;-12.00;77.27
58239;BME280;44037;55.638;37.356;2024-02-15T00:22:19;100239.44;;;-11.99;76.53
58239;BME280;44037;55.638;37.356;2024-02-15T00:24:47;100247.44;;;-12.15;76.62
58239;BME280;44037;55.638;37.356;2024-02-15T00:27:14;100230.22;;;-12.17;77.30
58239;BME280;44037;55.638;37.356;2024-02-15T00:29:42;100240.50;;;-12.13;77.09
58239;BME280;44037;55.638;37.356;2024-02-15T00:32:11;100228.34;;;-12.07;77.30
58239;BME280;44037;55.638;37.356;2024-02-15T00:34:38;100233.69;;;-12.18;77.01
58239;BME280;44037;55.638;37.356;2024-02-15T00:37:05;100224.97;;;-12.11;77.41
58239;BME280;44037;55.638;37.356;2024-02-15T00:39:33;100236.25;;;-12.17;77.09
58239;BME280;44037;55.638;37.356;2024-02-15T00:42:00;100220.75;;;-12.20;77.43
58239;BME280;44037;55.638;37.356;2024-02-15T00:44:27;100234.63;;;-12.22;77.51
58239;BME280;44037;55.638;37.356;2024-02-15T00:46:55;100226.16;;;-12.35;77.10
58239;BME280;44037;55.638;37.356;2024-02-15T00:49:23;100201.94;;;-12.31;77.56
58239;BME280;44037;55.638;37.356;2024-02-15T00:51:53;100220.69;;;-12.15;77.55
58239;BME280;44037;55.638;37.356;2024-02-15T00:54:21;100237.34;;;-12.33;77.23
58239;BME280;44037;55.638;37.356;2024-02-15T00:56:49;100225.19;;;-12.27;77.64
58239;BME280;44037;55.638;37.356;2024-02-15T00:59:16;100223.38;;;-12.21;77.54
58239;BME280;44037;55.638;37.356;2024-02-15T01:01:44;100230.19;;;-12.16;77.62
58239;BME280;44037;55.638;37.356;2024-02-15T01:04:12;100225.69;;;-12.03;77.83
58239;BME280;44037;55.638;37.356;2024-02-15T01:06:41;100228.06;;;-11.90;77.79
58239;BME280;44037;55.638;37.356;2024-02-15T01:09:08;100212.69;;;-12.01;77.29
58239;BME280;44037;55.638;37.356;2024-02-15T01:11:36;100224.84;;;-12.05;76.74
58239;BME280;44037;55.638;37.356;2024-02-15T01:14:04;100231.94;;;-12.18;76.80
58239;BME280;44037;55.638;37.356;2024-02-15T01:16:32;100228.19;;;-11.97;77.10
58239;BME280;44037;55.638;37.356;2024-02-15T01:19:02;100221.22;;;-11.95;76.79
58239;BME280;44037;55.638;37.356;2024-02-15T01:21:30;100217.56;;;-11.81;76.82
58239;BME280;44037;55.638;37.356;2024-02-15T01:24:00;100226.88;;;-11.71;76.93
58239;BME280;44037;55.638;37.356;2024-02-15T01:26:30;100234.97;;;-11.89;76.33
58239;BME280;44037;55.638;37.356;2024-02-15T01:28:57;100222.94;;;-11.94;76.64
58239;BME280;44037;55.638;37.356;2024-02-15T01:31:24;100226.31;;;-11.88;76.89
58239;BME280;44037;55.638;37.356;2024-02-15T01:33:52;100235.91;;;-11.94;76.65
58239;BME280;44037;55.638;37.356;2024-02-15T01:36:19;100238.22;;;-11.78;77.02
58239;BME280;44037;55.638;37.356;2024-02-15T01:38:46;100237.13;;;-11.63;77.04
58239;BME280;44037;55.638;37.356;2024-02-15T01:41:15;100232.84;;;-11.66;76.57
58239;BME280;44037;55.638;37.356;2024-02-15T01:43:43;100236.13;;;-11.56;76.61
58239;BME280;44037;55.638;37.356;2024-02-15T01:46:11;100228.88;;;-11.87;76.41
58239;BME280;44037;55.638;37.356;2024-02-15T01:48:40;100235.97;;;-12.00;76.98
58239;BME280;44037;55.638;37.356;2024-02-15T01:51:08;100235.03;;;-11.93;77.35
58239;BME280;44037;55.638;37.356;2024-02-15T01:53:37;100228.56;;;-11.70;77.43
58239;BME280;44037;55.638;37.356;2024-02-15T01:56:05;100224.59;;;-11.89;77.11
58239;BME280;44037;55.638;37.356;2024-02-15T01:58:34;100226.38;;;-11.91;77.49
58239;BME280;44037;55.638;37.356;2024-02-15T02:01:03;100223.00;;;-11.97;77.56
58239;BME280;44037;55.638;37.356;2024-02-15T02:03:31;100231.81;;;-12.10;77.60
58239;BME280;44037;55.638;37.356;2024-02-15T02:06:00;100234.16;;;-11.91;78.43
58239;BME280;44037;55.638;37.356;2024-02-15T02:08:27;100233.38;;;-11.97;78.49
58239;BME280;44037;55.638;37.356;2024-02-15T02:10:55;100220.41;;;-11.98;78.25
58239;BME280;44037;55.638;37.356;2024-02-15T02:13:23;100230.78;;;-11.98;78.67
58239;BME280;44037;55.638;37.356;2024-02-15T02:15:51;100222.44;;;-12.16;78.85
58239;BME280;44037;55.638;37.356;2024-02-15T02:18:19;100223.16;;;-12.06;78.92
58239;BME280;44037;55.638;37.356;2024-02-15T02:20:46;100241.31;;;-12.09;79.17
58239;BME280;44037;55.638;37.356;2024-02-15T02:23:14;100219.72;;;-12.08;79.04
58239;BME280;44037;55.638;37.356;2024-02-15T02:25:44;100226.78;;;-12.19;79.39
58239;BME280;44037;55.638;37.356;2024-02-15T02:28:12;100244.78;;;-12.08;79.49
58239;BME280;44037;55.638;37.356;2024-02-15T02:30:40;100228.34;;;-12.06;79.64
58239;BME280;44037;55.638;37.356;2024-02-15T02:33:11;100236.88;;;-12.02;80.15
58239;BME280;44037;55.638;37.356;2024-02-15T02:35:45;100243.84;;;-12.04;79.47
58239;BME280;44037;55.638;37.356;2024-02-15T02:38:14;100233.75;;;-12.21;79.06
58239;BME280;44037;55.638;37.356;2024-02-15T02:40:43;100232.84;;;-12.20;79.22
58239;BME280;44037;55.638;37.356;2024-02-15T02:43:10;100233.63;;;-12.15;79.49
58239;BME280;44037;55.638;37.356;2024-02-15T02:45:38;100253.34;;;-12.06;79.50
58239;BME280;44037;55.638;37.356;2024-02-15T02:48:06;100233.63;;;-12.15;79.73
58239;BME280;44037;55.638;37.356;2024-02-15T02:50:33;100250.84;;;-12.13;79.54
58239;BME280;44037;55.638;37.356;2024-02-15T02:53:01;100249.28;;;-12.21;79.79
58239;BME280;44037;55.638;37.356;2024-02-15T02:55:28;100247.72;;;-12.35;79.31
58239;BME280;44037;55.638;37.356;2024-02-15T02:57:58;100256.31;;;-12.33;79.88
58239;BME280;44037;55.638;37.356;2024-02-15T03:00:25;100253.72;;;-12.31;80.16
58239;BME280;44037;55.638;37.356;2024-02-15T03:02:53;100251.22;;;-12.39;79.88
58239;BME280;44037;55.638;37.356;2024-02-15T03:05:22;100259.72;;;-12.31;80.14
58239;BME280;44037;55.638;37.356;2024-02-15T03:07:50;100262.09;;;-12.15;80.56
58239;BME280;44037;55.638;37.356;2024-02-15T03:10:17;100249.22;;;-12.18;80.25
58239;BME280;44037;55.638;37.356;2024-02-15T03:12:45;100264.06;;;-12.31;80.03
58239;BME280;44037;55.638;37.356;2024-02-15T03:15:14;100245.25;;;-12.44;80.14
58239;BME280;44037;55.638;37.356;2024-02-15T03:17:43;100260.63;;;-12.33;80.56
58239;BME280;44037;55.638;37.356;2024-02-15T03:20:11;100253.66;;;-12.28;80.59
58239;BME280;44037;55.638;37.356;2024-02-15T03:22:51;100257.97;;;-12.27;80.54
58239;BME280;44037;55.638;37.356;2024-02-15T03:25:19;100266.59;;;-12.28;80.48
58239;BME280;44037;55.638;37.356;2024-02-15T03:27:49;100266.50;;;-12.19;80.54
58239;BME280;44037;55.638;37.356;2024-02-15T03:30:20;100278.72;;;-12.30;80.51
58239;BME280;44037;55.638;37.356;2024-02-15T03:32:47;100267.44;;;-12.24;80.54
58239;BME280;44037;55.638;37.356;2024-02-15T03:35:17;100263.00;;;-12.18;80.12
58239;BME280;44037;55.638;37.356;2024-02-15T03:37:45;100266.41;;;-12.14;80.51
58239;BME280;44037;55.638;37.356;2024-02-15T03:40:12;100265.03;;;-12.37;79.53
58239;BME280;44037;55.638;37.356;2024-02-15T03:42:40;100267.59;;;-12.38;80.12
58239;BME280;44037;55.638;37.356;2024-02-15T03:45:08;100269.31;;;-12.34;80.31
58239;BME280;44037;55.638;37.356;2024-02-15T03:47:38;100280.56;;;-12.37;80.03
58239;BME280;44037;55.638;37.356;2024-02-15T03:50:06;100278.66;;;-12.26;80.67
58239;BME280;44037;55.638;37.356;2024-02-15T03:52:36;100284.81;;;-12.33;80.39
58239;BME280;44037;55.638;37.356;2024-02-15T03:55:05;100285.03;;;-12.53;80.15
58239;BME280;44037;55.638;37.356;2024-02-15T03:57:37;100285.03;;;-12.50;80.25
58239;BME280;44037;55.638;37.356;2024-02-15T04:00:07;100282.28;;;-12.39;80.45
58239;BME280;44037;55.638;37.356;2024-02-15T04:02:38;100290.19;;;-12.48;80.23
58239;BME280;44037;55.638;37.356;2024-02-15T04:05:07;100282.22;;;-12.36;80.72
58239;BME280;44037;55.638;37.356;2024-02-15T04:07:36;100282.56;;;-12.61;79.57
58239;BME280;44037;55.638;37.356;2024-02-15T04:10:05;100284.41;;;-12.72;80.28
58239;BME280;44037;55.638;37.356;2024-02-15T04:12:46;100284.44;;;-12.75;80.75
58239;BME280;44037;55.638;37.356;2024-02-15T04:15:14;100288.56;;;-12.57;80.67
58239;BME280;44037;55.638;37.356;2024-02-15T04:17:44;100287.47;;;-12.39;81.18
58239;BME280;44037;55.638;37.356;2024-02-15T04:20:12;100271.81;;;-12.30;81.08
58239;BME280;44037;55.638;37.356;2024-02-15T04:22:41;100284.03;;;-12.41;80.90
58239;BME280;44037;55.638;37.356;2024-02-15T04:25:10;100280.75;;;-12.55;80.27
58239;BME280;44037;55.638;37.356;2024-02-15T04:27:44;100277.97;;;-12.40;81.06
58239;BME280;44037;55.638;37.356;2024-02-15T04:30:12;100267.66;;;-12.42;80.21
58239;BME280;44037;55.638;37.356;2024-02-15T04:32:41;100278.84;;;-12.38;80.84
58239;BME280;44037;55.638;37.356;2024-02-15T04:35:10;100278.06;;;-12.45;81.09
58239;BME280;44037;55.638;37.356;2024-02-15T04:37:38;100267.59;;;-12.37;80.67
58239;BME280;44037;55.638;37.356;2024-02-15T04:40:07;100274.53;;;-12.39;80.97
58239;BME280;44037;55.638;37.356;2024-02-15T04:42:37;100286.53;;;-12.33;80.83
58239;BME280;44037;55.638;37.356;2024-02-15T04:45:07;100280.44;;;-12.31;81.04
58239;BME280;44037;55.638;37.356;2024-02-15T04:47:47;100289.00;;;-12.26;81.41
58239;BME280;44037;55.638;37.356;2024-02-15T04:50:19;100285.91;;;-12.52;81.21
58239;BME280;44037;55.638;37.356;2024-02-15T04:52:46;100290.91;;;-12.37;81.46
58239;BME280;44037;55.638;37.356;2024-02-15T04:55:15;100300.16;;;-12.20;81.56
58239;BME280;44037;55.638;37.356;2024-02-15T04:57:43;100302.66;;;-12.14;82.20
58239;BME280;44037;55.638;37.356;2024-02-15T05:00:13;100298.94;;;-11.95;82.35
58239;BME280;44037;55.638;37.356;2024-02-15T05:02:41;100296.84;;;-11.71;82.65
58239;BME280;44037;55.638;37.356;2024-02-15T05:05:09;100312.16;;;-11.55;83.16
58239;BME280;44037;55.638;37.356;2024-02-15T05:07:40;100315.84;;;-11.72;82.30
58239;BME280;44037;55.638;37.356;2024-02-15T05:10:08;100318.22;;;-11.56;82.70
58239;BME280;44037;55.638;37.356;2024-02-15T05:12:37;100324.03;;;-11.42;82.56
58239;BME280;44037;55.638;37.356;2024-02-15T05:15:05;100334.22;;;-11.30;82.27
58239;BME280;44037;55.638;37.356;2024-02-15T05:17:37;100337.78;;;-11.37;82.25
58239;BME280;44037;55.638;37.356;2024-02-15T05:20:07;100337.56;;;-11.23;82.10
58239;BME280;44037;55.638;37.356;2024-02-15T05:22:37;100345.00;;;-11.04;82.75
58239;BME280;44037;55.638;37.356;2024-02-15T05:25:08;100347.38;;;-10.90;82.74
58239;BME280;44037;55.638;37.356;2024-02-15T05:27:35;100339.00;;;-11.08;83.06
58239;BME280;44037;55.638;37.356;2024-02-15T05:30:03;100344.97;;;-11.03;82.45
58239;BME280;44037;55.638;37.356;2024-02-15T05:32:33;100345.75;;;-10.98;83.04
58239;BME280;44037;55.638;37.356;2024-02-15T05:35:08;100356.38;;;-11.10;82.61
58239;BME280;44037;55.638;37.356;2024-02-15T05:37:35;100357.81;;;-10.94;82.04
58239;BME280;44037;55.638;37.356;2024-02-15T05:40:03;100356.59;;;-10.74;82.51
58239;BME280;44037;55.638;37.356;2024-02-15T05:42:32;100360.38;;;-10.92;81.41
58239;BME280;44037;55.638;37.356;2024-02-15T05:45:27;100362.50;;;-10.66;82.71
58239;BME280;44037;55.638;37.356;2024-02-15T05:47:58;100375.47;;;-10.66;82.17
58239;BME280;44037;55.638;37.356;2024-02-15T05:50:26;100375.91;;;-10.42;82.72
58239;BME280;44037;55.638;37.356;2024-02-15T05:52:55;100377.59;;;-10.41;82.74
58239;BME280;44037;55.638;37.356;2024-02-15T05:55:24;100376.69;;;-10.37;82.14
58239;BME280;44037;55.638;37.356;2024-02-15T05:57:53;100370.66;;;-10.39;82.40
58239;BME280;44037;55.638;37.356;2024-02-15T06:00:21;100374.13;;;-10.40;82.87
58239;BME280;44037;55.638;37.356;2024-02-15T06:02:48;100379.56;;;-10.52;81.76
58239;BME280;44037;55.638;37.356;2024-02-15T06:05:17;100382.69;;;-10.35;82.32
58239;BME280;44037;55.638;37.356;2024-02-15T06:07:44;100375.16;;;-10.49;83.08
58239;BME280;44037;55.638;37.356;2024-02-15T06:10:12;100383.59;;;-10.37;83.40
58239;BME280;44037;55.638;37.356;2024-02-15T06:12:40;100370.34;;;-10.23;83.61
58239;BME280;44037;55.638;37.356;2024-02-15T06:15:10;100372.38;;;-10.38;83.47
58239;BME280;44037;55.638;37.356;2024-02-15T06:17:41;100370.56;;;-10.36;84.49
58239;BME280;44037;55.638;37.356;2024-02-15T06:20:11;100379.81;;;-10.21;84.43
58239;BME280;44037;55.638;37.356;2024-02-15T06:22:40;100380.66;;;-10.20;85.01
58239;BME280;44037;55.638;37.356;2024-02-15T06:25:08;100391.28;;;-10.31;83.75
58239;BME280;44037;55.638;37.356;2024-02-15T06:27:37;100389.91;;;-10.05;83.85
58239;BME280;44037;55.638;37.356;2024-02-15T06:30:09;100392.53;;;-10.07;84.04
58239;BME280;44037;55.638;37.356;2024-02-15T06:33:03;100397.72;;;-10.07;84.78
58239;BME280;44037;55.638;37.356;2024-02-15T06:36:06;100392.50;;;-10.05;84.96
58239;BME280;44037;55.638;37.356;2024-02-15T06:38:51;100381.38;;;-10.12;83.42
58239;BME280;44037;55.638;37.356;2024-02-15T06:41:35;100383.44;;;-9.87;84.53
58239;BME280;44037;55.638;37.356;2024-02-15T06:44:03;100382.53;;;-9.86;85.37
58239;BME280;44037;55.638;37.356;2024-02-15T06:46:32;100393.66;;;-9.80;84.45
58239;BME280;44037;55.638;37.356;2024-02-15T06:48:59;100403.91;;;-9.72;83.49
58239;BME280;44037;55.638;37.356;2024-02-15T06:51:26;100402.84;;;-9.65;82.62
58239;BME280;44037;55.638;37.356;2024-02-15T06:53:54;100393.81;;;-9.48;84.00
58239;BME280;44037;55.638;37.356;2024-02-15T06:56:22;100382.97;;;-9.66;84.99
58239;BME280;44037;55.638;37.356;2024-02-15T06:58:50;100386.16;;;-9.54;85.11
58239;BME280;44037;55.638;37.356;2024-02-15T07:01:17;100389.69;;;-9.57;85.71
58239;BME280;44037;55.638;37.356;2024-02-15T07:03:47;100394.47;;;-9.38;85.29
58239;BME280;44037;55.638;37.356;2024-02-15T07:06:14;100406.13;;;-9.55;85.09
58239;BME280;44037;55.638;37.356;2024-02-15T07:08:41;100402.38;;;-9.43;85.40
58239;BME280;44037;55.638;37.356;2024-02-15T07:11:08;100398.81;;;-9.37;86.03
58239;BME280;44037;55.638;37.356;2024-02-15T07:13:36;100403.06;;;-9.35;85.59
58239;BME280;44037;55.638;37.356;2024-02-15T07:16:07;100411.19;;;-9.11;85.58
58239;BME280;44037;55.638;37.356;2024-02-15T07:18:34;100406.06;;;-9.14;85.27
58239;BME280;44037;55.638;37.356;2024-02-15T07:21:03;100401.47;;;-9.04;85.11
58239;BME280;44037;55.638;37.356;2024-02-15T07:23:37;100394.25;;;-8.93;85.55
58239;BME280;44037;55.638;37.356;2024-02-15T07:26:04;100398.16;;;-8.75;85.24
58239;BME280;44037;55.638;37.356;2024-02-15T07:28:32;100397.66;;;-8.55;85.01
58239;BME280;44037;55.638;37.356;2024-02-15T07:30:59;100398.00;;;-8.69;85.14
58239;BME280;44037;55.638;37.356;2024-02-15T07:33:28;100400.66;;;-8.70;85.21
58239;BME280;44037;55.638;37.356;2024-02-15T07:35:55;100401.97;;;-8.55;85.10
58239;BME280;44037;55.638;37.356;2024-02-15T07:38:24;100409.19;;;-8.32;84.81
58239;BME280;44037;55.638;37.356;2024-02-15T07:40:51;100410.75;;;-8.26;85.09
58239;BME280;44037;55.638;37.356;2024-02-15T07:43:19;100403.75;;;-8.24;85.16
58239;BME280;44037;55.638;37.356;2024-02-15T07:45:46;100423.56;;;-8.19;82.96
58239;BME280;44037;55.638;37.356;2024-02-15T07:48:15;100414.28;;;-8.27;83.77
58239;BME280;44037;55.638;37.356;2024-02-15T07:50:42;100414.09;;;-8.21;85.21
58239;BME280;44037;55.638;37.356;2024-02-15T07:53:09;100424.44;;;-8.18;84.45
58239;BME280;44037;55.638;37.356;2024-02-15T07:55:39;100423.78;;;-8.26;83.79
58239;BME280;44037;55.638;37.356;2024-02-15T07:58:07;100426.91;;;-8.14;84.06
58239;BME280;44037;55.638;37.356;2024-02-15T08:00:34;100420.03;;;-8.16;83.03
58239;BME280;44037;55.638;37.356;2024-02-15T08:03:03;100425.22;;;-8.15;83.71
58239;BME280;44037;55.638;37.356;2024-02-15T08:05:31;100425.22;;;-8.15;85.13
58239;BME280;44037;55.638;37.356;2024-02-15T08:07:58;100426.47;;;-7.97;84.34
58239;BME280;44037;55.638;37.356;2024-02-15T08:10:26;100422.59;;;-7.83;84.31
58239;BME280;44037;55.638;37.356;2024-02-15T08:12:56;100436.41;;;-7.80;83.55
58239;BME280;44037;55.638;37.356;2024-02-15T08:15:24;100432.63;;;-7.69;83.58
58239;BME280;44037;55.638;37.356;2024-02-15T08:17:53;100425.53;;;-7.64;82.87
58239;BME280;44037;55.638;37.356;2024-02-15T08:20:21;100423.59;;;-7.57;82.81
58239;BME280;44037;55.638;37.356;2024-02-15T08:22:48;100422.50;;;-7.50;83.57
58239;BME280;44037;55.638;37.356;2024-02-15T08:25:15;100432.19;;;-7.54;83.30
58239;BME280;44037;55.638;37.356;2024-02-15T08:27:47;100415.94;;;-7.64;83.16
58239;BME280;44037;55.638;37.356;2024-02-15T08:30:16;100426.84;;;-7.51;83.91
58239;BME280;44037;55.638;37.356;2024-02-15T08:32:45;100437.78;;;-7.68;82.36
58239;BME280;44037;55.638;37.356;2024-02-15T08:35:13;100430.03;;;-7.41;84.09
58239;BME280;44037;55.638;37.356;2024-02-15T08:37:41;100431.03;;;-7.45;84.39
58239;BME280;44037;55.638;37.356;2024-02-15T08:40:10;100435.56;;;-7.52;82.95
58239;BME280;44037;55.638;37.356;2024-02-15T08:42:38;100434.41;;;-7.43;82.55
58239;BME280;44037;55.638;37.356;2024-02-15T08:45:06;100443.13;;;-7.72;81.47
58239;BME280;44037;55.638;37.356;2024-02-15T08:47:37;100440.06;;;-7.55;80.34
58239;BME280;44037;55.638;37.356;2024-02-15T08:50:06;100441.72;;;-7.53;81.23
58239;BME280;44037;55.638;37.356;2024-02-15T08:52:35;100440.91;;;-7.55;82.06
58239;BME280;44037;55.638;37.356;2024-02-15T08:55:04;100437.75;;;-7.66;80.78
58239;BME280;44037;55.638;37.356;2024-02-15T08:57:32;100438.47;;;-7.61;80.90
58239;BME280;44037;55.638;37.356;2024-02-15T09:00:01;100440.84;;;-7.83;81.06
58239;BME280;44037;55.638;37.356;2024-02-15T09:02:30;100445.66;;;-8.01;80.97
58239;BME280;44037;55.638;37.356;2024-02-15T09:05:00;100441.53;;;-8.08;80.51
58239;BME280;44037;55.638;37.356;2024-02-15T09:07:27;100436.69;;;-7.90;81.37
58239;BME280;44037;55.638;37.356;2024-02-15T09:09:56;100437.41;;;-7.84;80.09
58239;BME280;44037;55.638;37.356;2024-02-15T09:12:24;100435.09;;;-7.65;80.71
58239;BME280;44037;55.638;37.356;2024-02-15T09:14:51;100437.94;;;-8.04;81.01
58239;BME280;44037;55.638;37.356;2024-02-15T09:17:18;100438.56;;;-7.94;80.93
58239;BME280;44037;55.638;37.356;2024-02-15T09:19:47;100445.66;;;-8.01;80.84
58239;BME280;44037;55.638;37.356;2024-02-15T09:22:16;100436.50;;;-8.14;82.19
58239;BME280;44037;55.638;37.356;2024-02-15T09:24:44;100446.22;;;-7.89;83.51
58239;BME280;44037;55.638;37.356;2024-02-15T09:27:12;100444.28;;;-7.81;82.15
58239;BME280;44037;55.638;37.356;2024-02-15T09:29:39;100451.06;;;-7.75;81.88
58239;BME280;44037;55.638;37.356;2024-02-15T09:32:08;100444.19;;;-7.78;82.41
58239;BME280;44037;55.638;37.356;2024-02-15T09:34:35;100446.16;;;-7.86;80.32
58239;BME280;44037;55.638;37.356;2024-02-15T09:37:02;100440.47;;;-8.01;81.90
58239;BME280;44037;55.638;37.356;2024-02-15T09:39:32;100442.19;;;-8.00;81.36
58239;BME280;44037;55.638;37.356;2024-02-15T09:42:02;100449.09;;;-7.99;82.12
58239;BME280;44037;55.638;37.356;2024-02-15T09:44:29;100440.09;;;-8.18;83.43
58239;BME280;44037;55.638;37.356;2024-02-15T09:47:02;100441.88;;;-8.20;83.65
58239;BME280;44037;55.638;37.356;2024-02-15T09:49:35;100440.72;;;-8.10;83.32
58239;BME280;44037;55.638;37.356;2024-02-15T09:52:03;100460.56;;;-8.04;81.49
58239;BME280;44037;55.638;37.356;2024-02-15T09:54:33;100445.38;;;-7.90;82.59
58239;BME280;44037;55.638;37.356;2024-02-15T09:57:01;100445.84;;;-7.75;82.15
58239;BME280;44037;55.638;37.356;2024-02-15T09:59:29;100451.28;;;-7.83;80.92
58239;BME280;44037;55.638;37.356;2024-02-15T10:01:58;100450.59;;;-7.90;80.73
58239;BME280;44037;55.638;37.356;2024-02-15T10:04:26;100442.47;;;-7.79;80.64
58239;BME280;44037;55.638;37.356;2024-02-15T10:06:53;100453.06;;;-7.85;80.01
58239;BME280;44037;55.638;37.356;2024-02-15T10:09:24;100445.13;;;-7.81;80.86
58239;BME280;44037;55.638;37.356;2024-02-15T10:11:59;100449.13;;;-7.69;81.95
58239;BME280;44037;55.638;37.356;2024-02-15T10:14:27;100443.34;;;-7.80;80.56
58239;BME280;44037;55.638;37.356;2024-02-15T10:16:56;100448.03;;;-7.91;81.59
58239;BME280;44037;55.638;37.356;2024-02-15T10:19:25;100451.69;;;-7.67;80.96
58239;BME280;44037;55.638;37.356;2024-02-15T10:21:53;100457.09;;;-7.73;79.33
58239;BME280;44037;55.638;37.356;2024-02-15T10:24:22;100458.78;;;-7.72;81.83
58239;BME280;44037;55.638;37.356;2024-02-15T10:26:51;100455.13;;;-7.65;81.53
58239;BME280;44037;55.638;37.356;2024-02-15T10:29:19;100453.09;;;-7.55;81.70
58239;BME280;44037;55.638;37.356;2024-02-15T10:31:54;100460.16;;;-7.31;81.07
58239;BME280;44037;55.638;37.356;2024-02-15T10:34:21;100455.25;;;-7.13;80.42
58239;BME280;44037;55.638;37.356;2024-02-15T10:36:49;100454.78;;;-7.26;80.29
58239;BME280;44037;55.638;37.356;2024-02-15T10:39:18;100461.19;;;-7.36;79.31
58239;BME280;44037;55.638;37.356;2024-02-15T10:41:47;100457.38;;;-7.26;79.34
58239;BME280;44037;55.638;37.356;2024-02-15T10:44:15;100459.03;;;-7.22;79.15
58239;BME280;44037;55.638;37.356;2024-02-15T10:46:46;100469.72;;;-7.03;78.67
58239;BME280;44037;55.638;37.356;2024-02-15T10:49:19;100466.31;;;-7.05;78.57
58239;BME280;44037;55.638;37.356;2024-02-15T10:51:50;100462.59;;;-7.24;78.93
58239;BME280;44037;55.638;37.356;2024-02-15T10:54:41;100462.59;;;-7.26;79.11
58239;BME280;44037;55.638;37.356;2024-02-15T10:57:11;100455.53;;;-7.22;79.16
58239;BME280;44037;55.638;37.356;2024-02-15T10:59:54;100453.50;;;-7.13;78.42
58239;BME280;44037;55.638;37.356;2024-02-15T11:02:28;100462.13;;;-6.82;78.44
58239;BME280;44037;55.638;37.356;2024-02-15T11:05:02;100457.13;;;-7.17;77.87
58239;BME280;44037;55.638;37.356;2024-02-15T11:07:32;100457.50;;;-7.01;78.89
58239;BME280;44037;55.638;37.356;2024-02-15T11:10:00;100464.97;;;-6.90;78.70
58239;BME280;44037;55.638;37.356;2024-02-15T11:12:28;100458.00;;;-6.89;78.83
58239;BME280;44037;55.638;37.356;2024-02-15T11:14:56;100459.91;;;-6.94;77.95
58239;BME280;44037;55.638;37.356;2024-02-15T11:17:52;100457.19;;;-6.91;79.49
58239;BME280;44037;55.638;37.356;2024-02-15T11:20:47;100466.44;;;-6.81;79.08
58239;BME280;44037;55.638;37.356;2024-02-15T11:23:25;100463.78;;;-7.06;79.71
58239;BME280;44037;55.638;37.356;2024-02-15T11:25:53;100462.22;;;-6.85;79.06
58239;BME280;44037;55.638;37.356;2024-02-15T11:28:38;100469.28;;;-6.89;77.71
58239;BME280;44037;55.638;37.356;2024-02-15T11:34:43;100472.06;;;-6.93;77.54
58239;BME280;44037;55.638;37.356;2024-02-15T11:40:22;100474.47;;;-7.14;79.05
58239;BME280;44037;55.638;37.356;2024-02-15T11:42:50;100478.97;;;-7.19;78.85
58239;BME280;44037;55.638;37.356;2024-02-15T11:45:19;100477.38;;;-7.25;77.37
58239;BME280;44037;55.638;37.356;2024-02-15T11:47:51;100490.72;;;-7.06;78.70
58239;BME280;44037;55.638;37.356;2024-02-15T11:50:21;100477.78;;;-7.10;79.53
58239;BME280;44037;55.638;37.356;2024-02-15T11:52:50;100482.53;;;-7.22;78.42
58239;BME280;44037;55.638;37.356;2024-02-15T11:55:18;100490.72;;;-7.34;78.52
58239;BME280;44037;55.638;37.356;2024-02-15T11:57:56;100489.34;;;-7.18;79.82
58239;BME280;44037;55.638;37.356;2024-02-15T12:00:29;100490.91;;;-7.12;79.78
58239;BME280;44037;55.638;37.356;2024-02-15T12:03:14;100489.28;;;-7.16;78.30
58239;BME280;44037;55.638;37.356;2024-02-15T12:06:01;100489.63;;;-7.27;79.43
58239;BME280;44037;55.638;37.356;2024-02-15T12:08:45;100491.56;;;-7.34;80.66
58239;BME280;44037;55.638;37.356;2024-02-15T12:11:30;100484.72;;;-7.38;79.70
58239;BME280;44037;55.638;37.356;2024-02-15T12:14:15;100486.75;;;-7.48;80.96
58239;BME280;44037;55.638;37.356;2024-02-15T12:17:04;100483.75;;;-7.64;79.42
58239;BME280;44037;55.638;37.356;2024-02-15T12:19:50;100484.31;;;-7.52;79.54
58239;BME280;44037;55.638;37.356;2024-02-15T12:22:22;100494.03;;;-7.57;79.57
58239;BME280;44037;55.638;37.356;2024-02-15T12:24:55;100496.16;;;-7.42;80.20
58239;BME280;44037;55.638;37.356;2024-02-15T12:27:23;100499.91;;;-7.51;79.13
58239;BME280;44037;55.638;37.356;2024-02-15T12:29:54;100489.56;;;-7.54;80.22
58239;BME280;44037;55.638;37.356;2024-02-15T12:32:23;100492.47;;;-7.65;78.59
58239;BME280;44037;55.638;37.356;2024-02-15T12:34:50;100490.41;;;-7.53;80.24
58239;BME280;44037;55.638;37.356;2024-02-15T12:37:19;100487.47;;;-7.42;81.07
58239;BME280;44037;55.638;37.356;2024-02-15T12:39:49;100490.66;;;-7.33;81.31
58239;BME280;44037;55.638;37.356;2024-02-15T12:42:18;100497.19;;;-7.18;80.27
58239;BME280;44037;55.638;37.356;2024-02-15T12:44:46;100500.75;;;-7.20;80.17
58239;BME280;44037;55.638;37.356;2024-02-15T12:47:20;100498.19;;;-7.22;79.83
58239;BME280;44037;55.638;37.356;2024-02-15T12:49:49;100489.22;;;-7.43;80.59
58239;BME280;44037;55.638;37.356;2024-02-15T12:52:34;100505.59;;;-7.38;81.98
58239;BME280;44037;55.638;37.356;2024-02-15T12:55:10;100501.63;;;-7.21;82.47